Colville Lake, Canada
Current Conditions -  °F | °C
As of 4:16 PM on Saturday 20 Dec 2014 (Local Time) from CYVL Reporting Station
Overcast Overcast  
Wind Chill: -4°   Ceiling: 1400
Heat Index: -4°   Visibility: 9mi
Dew Point: -8°   Wind: 3mph
Humidity: 85%   Direction: 60°ENE
Pressure: 29.59"   Gusts: NA
Location:  67.03°N, 126.12°W
Report Text: CYVL 202316Z AUTO 06003KT 9SM OVC014 M20/M22 A2959 RMK SLP056
Loading
Personal Weather Stations






























Interactive Weather Map New forecast layout! Learn more

10-Day Weather Forecast

Advertisements
Track Severe Weather on mobile